createdAt,value
2022-10-11T00:01:29.417Z,47.85
2022-10-11T00:04:06.745Z,38.47
2022-10-11T00:06:44.075Z,44.20
2022-10-11T00:09:21.467Z,44.60
2022-10-11T00:11:59.032Z,42.60
2022-10-11T00:14:36.332Z,45.75
2022-10-11T00:17:13.633Z,42.45
2022-10-11T00:19:50.877Z,45.40
2022-10-11T00:22:28.168Z,40.13
2022-10-11T00:25:10.399Z,44.50
2022-10-11T00:27:47.681Z,44.85
2022-10-11T00:30:25.100Z,52.35
2022-10-11T00:33:03.015Z,44.65
2022-10-11T00:35:41.832Z,46.72
2022-10-11T00:38:19.162Z,53.00
2022-10-11T00:40:56.543Z,47.65
2022-10-11T00:43:34.253Z,45.15
2022-10-11T00:46:30.438Z,50.53
2022-10-11T00:49:17.194Z,51.92
2022-10-11T00:52:01.897Z,50.88
2022-10-11T00:54:42.876Z,47.03
2022-10-11T00:57:25.180Z,49.47
2022-10-11T01:00:06.452Z,47.28
2022-10-11T01:02:43.926Z,48.08
2022-10-11T01:05:30.171Z,45.55
2022-10-11T01:08:08.732Z,44.90
2022-10-11T01:10:46.129Z,53.20
2022-10-11T01:13:58.281Z,49.25
2022-10-11T01:16:53.246Z,48.90
2022-10-11T01:19:59.535Z,47.88
2022-10-11T01:23:10.997Z,47.95
2022-10-11T01:26:12.557Z,46.80
2022-10-11T01:29:03.374Z,51.63
2022-10-11T01:31:56.755Z,53.17
2022-10-11T01:34:53.248Z,47.00
2022-10-11T01:37:36.318Z,50.72
2022-10-11T01:40:21.988Z,51.58
2022-10-11T01:43:01.239Z,48.78
2022-10-11T01:45:39.257Z,49.65
2022-10-11T01:48:16.643Z,50.63
2022-10-11T01:50:57.229Z,51.50
2022-10-11T01:53:49.120Z,46.25
2022-10-11T01:56:51.120Z,49.35
2022-10-11T01:59:38.514Z,47.08
2022-10-11T02:02:36.886Z,50.08
2022-10-11T02:05:43.255Z,47.03
2022-10-11T02:08:37.506Z,47.25
2022-10-11T02:11:31.429Z,47.97
2022-10-11T02:14:11.367Z,45.28
2022-10-11T02:19:40.969Z,58.42
2022-10-11T02:22:24.787Z,48.90
2022-10-11T02:25:08.693Z,49.22
2022-10-11T02:27:48.797Z,49.85
2022-10-11T02:30:26.187Z,48.17
2022-10-11T02:33:07.886Z,50.50
2022-10-11T02:35:49.664Z,48.40
2022-10-11T02:38:53.193Z,49.22
2022-10-11T02:41:35.243Z,47.20
2022-10-11T02:44:35.514Z,46.53
2022-10-11T02:47:14.240Z,47.13
2022-10-11T02:49:51.606Z,46.33
2022-10-11T02:52:28.961Z,44.97
2022-10-11T02:55:06.997Z,51.33
2022-10-11T02:57:44.435Z,47.58
2022-10-11T03:00:21.704Z,46.85
2022-10-11T03:02:59.011Z,50.17
2022-10-11T03:05:42.247Z,49.67
2022-10-11T03:08:19.491Z,47.50
2022-10-11T03:10:56.916Z,45.60
2022-10-11T03:13:34.234Z,45.55
2022-10-11T03:16:11.851Z,44.78
2022-10-11T03:18:49.490Z,45.00
2022-10-11T03:21:26.780Z,47.10
2022-10-11T03:24:04.366Z,54.30
2022-10-11T03:26:41.644Z,43.58
2022-10-11T03:29:18.977Z,42.88
2022-10-11T03:31:56.304Z,43.58
2022-10-11T03:34:33.890Z,41.83
2022-10-11T03:37:11.118Z,40.05
2022-10-11T03:39:48.998Z,46.05
2022-10-11T03:42:26.299Z,41.65
2022-10-11T03:45:08.446Z,43.28
2022-10-11T03:47:45.635Z,42.67
2022-10-11T03:50:23.073Z,42.72
2022-10-11T03:53:00.464Z,37.30
2022-10-11T03:55:40.309Z,40.22
2022-10-11T03:58:17.523Z,41.35
2022-10-11T04:00:54.807Z,40.00
2022-10-11T04:03:32.106Z,38.33
2022-10-11T04:06:09.579Z,45.63
2022-10-11T04:08:57.085Z,45.88
2022-10-11T04:11:34.351Z,41.40
2022-10-11T04:14:11.623Z,44.53
2022-10-11T04:16:48.887Z,39.67
2022-10-11T04:19:26.228Z,40.25
2022-10-11T04:22:06.908Z,44.75
2022-10-11T04:24:44.146Z,46.78
2022-10-11T04:27:21.797Z,46.53
2022-10-11T04:30:05.531Z,47.83
2022-10-11T04:32:43.278Z,47.83
2022-10-11T04:35:20.617Z,44.25
2022-10-11T04:37:57.926Z,46.17
2022-10-11T04:40:35.410Z,40.20
2022-10-11T04:43:12.768Z,46.67
2022-10-11T04:45:54.632Z,40.75
2022-10-11T04:48:33.131Z,41.05
2022-10-11T04:51:10.402Z,42.20
2022-10-11T04:53:48.707Z,42.05
2022-10-11T04:56:26.153Z,42.28
2022-10-11T04:59:03.825Z,41.97
2022-10-11T05:01:41.161Z,44.35
2022-10-11T05:04:18.447Z,40.92
2022-10-11T05:06:55.820Z,42.22
2022-10-11T05:09:33.119Z,41.15
2022-10-11T05:12:10.865Z,45.20
2022-10-11T05:14:48.315Z,43.63
2022-10-11T05:17:25.657Z,46.00
2022-10-11T05:20:02.967Z,40.25
2022-10-11T05:22:40.342Z,43.20
2022-10-11T05:25:17.819Z,41.15
2022-10-11T05:27:55.041Z,41.85
2022-10-11T05:30:34.681Z,39.90
2022-10-11T05:33:11.989Z,39.35
2022-10-11T05:35:49.367Z,42.50
2022-10-11T05:38:27.174Z,41.05
2022-10-11T05:41:06.303Z,37.47
2022-10-11T05:43:44.866Z,41.13
2022-10-11T05:46:22.410Z,38.38
2022-10-11T05:48:59.645Z,38.22
2022-10-11T05:51:36.904Z,36.58
2022-10-11T05:54:14.241Z,34.00
2022-10-11T05:56:51.508Z,34.33
2022-10-11T05:59:28.731Z,35.90
2022-10-11T06:02:06.567Z,35.00
2022-10-11T06:04:43.821Z,35.42
2022-10-11T06:07:21.113Z,35.35
2022-10-11T06:09:58.318Z,32.13
2022-10-11T06:12:35.746Z,32.25
2022-10-11T06:15:13.069Z,34.47
2022-10-11T06:17:50.345Z,31.33
2022-10-11T06:20:27.806Z,27.13
2022-10-11T06:23:05.174Z,29.75
2022-10-11T06:25:42.390Z,32.70
2022-10-11T06:28:19.650Z,29.98
2022-10-11T06:30:57.693Z,28.55
2022-10-11T06:33:35.431Z,30.75
2022-10-11T06:36:14.543Z,36.85
2022-10-11T06:38:53.167Z,29.37
2022-10-11T06:41:31.205Z,28.80
2022-10-11T06:44:14.448Z,29.85
2022-10-11T06:46:51.778Z,36.08
2022-10-11T06:49:29.200Z,31.77
2022-10-11T06:52:06.491Z,29.35
2022-10-11T06:54:45.016Z,28.48
2022-10-11T06:57:22.541Z,34.75
2022-10-11T06:59:59.860Z,27.00
2022-10-11T07:02:37.122Z,32.60
2022-10-11T07:05:14.355Z,34.17
2022-10-11T07:07:51.603Z,30.50
2022-10-11T07:10:28.898Z,28.65
2022-10-11T07:13:06.195Z,27.65
2022-10-11T07:15:43.562Z,30.35
2022-10-11T07:18:20.987Z,30.65
2022-10-11T07:20:59.289Z,27.85
2022-10-11T07:23:36.933Z,29.58
2022-10-11T07:26:14.469Z,28.13
2022-10-11T07:28:51.972Z,26.63
2022-10-11T07:31:29.956Z,31.52
2022-10-11T07:34:07.452Z,38.20
2022-10-11T07:36:44.779Z,34.58
2022-10-11T07:39:22.167Z,34.25
2022-10-11T07:42:00.252Z,34.08
2022-10-11T07:44:37.556Z,32.40
2022-10-11T07:47:15.367Z,38.17
2022-10-11T07:49:52.639Z,37.15
2022-10-11T07:52:29.886Z,38.58
2022-10-11T07:55:07.700Z,38.65
2022-10-11T07:57:44.996Z,40.58
2022-10-11T08:00:22.436Z,41.50
2022-10-11T08:03:02.935Z,39.50
2022-10-11T08:05:40.161Z,38.03
2022-10-11T08:08:17.487Z,38.22
2022-10-11T08:10:56.347Z,40.88
2022-10-11T08:13:34.350Z,46.97
2022-10-11T08:16:12.811Z,44.63
2022-10-11T08:18:50.343Z,46.38
2022-10-11T08:21:27.725Z,43.33
2022-10-11T08:24:05.851Z,40.50
2022-10-11T08:26:43.113Z,42.55
2022-10-11T08:29:20.495Z,45.85
2022-10-11T08:31:58.523Z,50.25
2022-10-11T08:34:35.810Z,51.33
2022-10-11T08:37:13.178Z,50.17
2022-10-11T08:39:50.604Z,55.22
2022-10-11T08:42:36.727Z,55.72
2022-10-11T08:45:45.631Z,60.08
2022-10-11T08:48:44.958Z,51.73
2022-10-11T08:51:33.985Z,55.78
2022-10-11T08:54:23.135Z,56.72
2022-10-11T08:57:03.732Z,50.15
2022-10-11T09:00:07.003Z,46.40
2022-10-11T09:03:14.725Z,42.22
2022-10-11T09:06:26.393Z,44.22
2022-10-11T09:09:41.157Z,48.42
2022-10-11T09:12:47.930Z,43.33
2022-10-11T09:16:03.439Z,44.50
2022-10-11T09:19:01.694Z,42.05
2022-10-11T09:21:48.006Z,48.63
2022-10-11T09:24:37.075Z,41.78
2022-10-11T09:27:57.303Z,42.20
2022-10-11T09:30:24.692Z,45.45
2022-10-11T09:33:08.329Z,42.13
2022-10-11T09:35:50.974Z,43.60
2022-10-11T09:38:40.998Z,44.10
2022-10-11T09:41:39.139Z,45.20
2022-10-11T09:44:07.903Z,43.47
2022-10-11T09:46:39.175Z,44.50
2022-10-11T09:49:10.681Z,38.58
2022-10-11T09:51:38.604Z,39.95
2022-10-11T09:54:06.802Z,36.45
2022-10-11T09:56:40.539Z,38.35
2022-10-11T09:59:27.470Z,35.45
2022-10-11T10:02:12.899Z,34.05
2022-10-11T10:05:02.013Z,33.83
2022-10-11T10:07:31.675Z,40.80
2022-10-11T10:12:30.687Z,35.17
2022-10-11T10:15:19.533Z,31.92
2022-10-11T10:17:51.968Z,32.07
2022-10-11T10:20:28.009Z,30.58
2022-10-11T10:22:55.117Z,28.30
2022-10-11T10:25:30.759Z,31.83
2022-10-11T10:28:03.566Z,40.22
2022-10-11T10:30:35.409Z,31.90
2022-10-11T10:33:11.772Z,34.00
2022-10-11T10:35:45.667Z,30.40
2022-10-11T10:38:22.853Z,30.27
2022-10-11T10:40:56.826Z,33.05
2022-10-11T10:43:43.985Z,29.15
2022-10-11T10:46:17.039Z,31.27
2022-10-11T10:49:52.514Z,31.20
2022-10-11T10:52:31.831Z,33.53
2022-10-11T10:55:23.999Z,37.20
2022-10-11T10:58:18.471Z,33.58
2022-10-11T11:00:51.062Z,29.88
2022-10-11T11:03:48.136Z,33.60
2022-10-11T11:06:35.661Z,32.60
2022-10-11T11:09:11.400Z,33.03
2022-10-11T11:12:08.968Z,32.75
2022-10-11T11:14:35.918Z,30.63
2022-10-11T11:17:06.285Z,27.08
2022-10-11T11:20:03.416Z,29.95
2022-10-11T11:22:33.638Z,24.20
2022-10-11T11:25:00.631Z,27.42
2022-10-11T11:27:46.168Z,26.70
2022-10-11T11:30:30.186Z,28.88
2022-10-11T11:33:17.517Z,26.05
2022-10-11T11:35:52.955Z,28.73
2022-10-11T11:38:34.380Z,28.25
2022-10-11T11:41:06.378Z,24.88
2022-10-11T11:43:59.189Z,27.88
2022-10-11T11:46:38.523Z,24.30
2022-10-11T11:49:17.279Z,27.25
2022-10-11T11:51:46.351Z,27.00
2022-10-11T11:54:24.601Z,25.05
2022-10-11T11:57:30.400Z,25.70
2022-10-11T12:00:26.837Z,27.23
2022-10-11T12:03:01.353Z,27.10
2022-10-11T12:05:32.119Z,28.50
2022-10-11T12:08:27.491Z,24.52
2022-10-11T12:10:59.856Z,22.25
2022-10-11T12:13:34.236Z,27.23
2022-10-11T12:16:09.942Z,23.10
2022-10-11T12:18:54.374Z,24.77
2022-10-11T12:21:39.567Z,25.95
2022-10-11T12:24:11.339Z,21.48
2022-10-11T12:26:46.827Z,27.77
2022-10-11T12:29:31.888Z,20.98
2022-10-11T12:31:58.966Z,21.88
2022-10-11T12:34:42.274Z,25.77
2022-10-11T12:37:18.952Z,21.10
2022-10-11T12:39:57.395Z,28.65
2022-10-11T12:42:33.183Z,23.25
2022-10-11T12:45:15.077Z,27.25
2022-10-11T12:48:04.490Z,29.90
2022-10-11T12:50:42.216Z,23.95
2022-10-11T12:53:24.448Z,19.65
2022-10-11T12:56:20.936Z,20.83
2022-10-11T12:58:48.672Z,23.23
2022-10-11T13:01:21.815Z,19.75
2022-10-11T13:03:53.171Z,22.17
2022-10-11T13:06:31.187Z,21.55
2022-10-11T13:09:03.745Z,23.52
2022-10-11T13:11:38.989Z,22.50
2022-10-11T13:14:17.964Z,20.08
2022-10-11T13:16:56.818Z,26.45
2022-10-11T13:19:24.941Z,22.73
2022-10-11T13:21:56.474Z,19.02
2022-10-11T13:24:25.107Z,22.30
2022-10-11T13:26:55.725Z,24.90
2022-10-11T13:29:35.406Z,21.75
2022-10-11T13:32:15.290Z,19.77
2022-10-11T13:34:46.668Z,23.20
2022-10-11T13:37:20.977Z,21.70
2022-10-11T13:39:51.290Z,17.55
2022-10-11T13:42:20.035Z,20.30
2022-10-11T13:44:47.890Z,18.70
2022-10-11T13:47:21.078Z,20.90
2022-10-11T13:50:00.812Z,20.70
2022-10-11T13:55:09.286Z,21.95
2022-10-11T13:57:42.865Z,17.45
2022-10-11T14:00:15.789Z,20.73
2022-10-11T14:02:54.052Z,12.70
2022-10-11T14:05:29.308Z,13.18
2022-10-11T14:07:59.209Z,16.00
2022-10-11T14:10:27.332Z,13.65
2022-10-11T14:13:04.778Z,10.07
2022-10-11T14:15:35.401Z,15.85
2022-10-11T14:18:33.726Z,11.55
2022-10-11T14:21:28.444Z,13.75
2022-10-11T14:23:58.558Z,12.07
2022-10-11T14:26:27.890Z,9.57
2022-10-11T14:29:00.902Z,13.15
2022-10-11T14:31:30.160Z,11.05
2022-10-11T14:33:58.343Z,9.52
2022-10-11T14:36:28.982Z,11.30
2022-10-11T14:38:56.278Z,10.73
2022-10-11T14:41:23.316Z,14.35
2022-10-11T14:43:50.435Z,10.43
2022-10-11T14:46:24.982Z,11.95
2022-10-11T14:48:56.738Z,12.88
2022-10-11T14:51:32.439Z,12.20
2022-10-11T14:53:59.679Z,9.02
2022-10-11T14:56:26.730Z,13.52
2022-10-11T14:58:53.742Z,9.82
2022-10-11T15:01:20.858Z,10.02
2022-10-11T15:03:49.084Z,10.10
2022-10-11T15:06:24.410Z,12.07
2022-10-11T15:08:53.433Z,10.02
2022-10-11T15:11:23.831Z,9.93
2022-10-11T15:13:51.045Z,12.90
2022-10-11T15:16:20.888Z,11.30
2022-10-11T15:21:23.795Z,11.90
2022-10-11T15:23:52.572Z,9.77
2022-10-11T15:26:26.264Z,12.73
2022-10-11T15:28:55.829Z,13.48
2022-10-11T15:31:24.037Z,10.48
2022-10-11T15:33:51.504Z,13.70
2022-10-11T15:36:21.697Z,11.98
2022-10-11T15:38:49.610Z,12.07
2022-10-11T15:41:19.180Z,12.25
2022-10-11T15:43:47.706Z,12.85
2022-10-11T15:46:20.633Z,10.52
2022-10-11T15:48:48.391Z,10.57
2022-10-11T15:51:16.286Z,11.13
2022-10-11T15:53:43.416Z,9.23
2022-10-11T15:56:15.363Z,16.33
2022-10-11T15:58:43.273Z,15.02
2022-10-11T16:01:20.473Z,13.20
2022-10-11T16:03:48.916Z,13.38
2022-10-11T16:06:16.695Z,10.95
2022-10-11T16:08:44.166Z,9.55
2022-10-11T16:11:12.337Z,13.18
2022-10-11T16:13:40.563Z,9.70
2022-10-11T16:16:09.304Z,12.38
2022-10-11T16:18:38.198Z,15.73
2022-10-11T16:21:08.792Z,11.38
2022-10-11T16:23:36.434Z,17.98
2022-10-11T16:26:06.947Z,13.63
2022-10-11T16:28:34.571Z,11.30
2022-10-11T16:31:14.727Z,10.82
2022-10-11T16:33:48.134Z,13.65
2022-10-11T16:36:36.107Z,13.65
2022-10-11T16:39:24.168Z,9.10
2022-10-11T16:41:51.138Z,12.88
2022-10-11T16:44:21.423Z,12.82
2022-10-11T16:46:49.085Z,17.02
2022-10-11T16:49:18.010Z,16.60
2022-10-11T16:51:45.143Z,18.00
2022-10-11T16:54:14.616Z,16.73
2022-10-11T16:56:45.611Z,17.38
2022-10-11T16:59:13.121Z,17.05
2022-10-11T17:01:40.335Z,16.20
2022-10-11T17:04:07.719Z,16.15
2022-10-11T17:06:34.781Z,13.75
2022-10-11T17:09:02.161Z,11.50
2022-10-11T17:11:29.121Z,13.40
2022-10-11T17:13:56.267Z,16.60
2022-10-11T17:16:23.650Z,15.13
2022-10-11T17:18:50.771Z,19.35
2022-10-11T17:21:20.047Z,15.65
2022-10-11T17:23:48.667Z,16.58
2022-10-11T17:26:19.559Z,12.65
2022-10-11T17:28:46.999Z,11.45
2022-10-11T17:31:14.080Z,16.00
2022-10-11T17:33:41.168Z,15.13
2022-10-11T17:36:20.998Z,15.07
2022-10-11T17:41:15.532Z,17.33
2022-10-11T17:43:43.019Z,21.23
2022-10-11T17:46:12.834Z,15.35
2022-10-11T17:51:15.705Z,19.40
2022-10-11T17:53:43.028Z,14.95
2022-10-11T17:56:13.110Z,18.25
2022-10-11T17:58:40.922Z,12.50
2022-10-11T18:01:12.382Z,16.00
2022-10-11T18:03:40.550Z,21.13
2022-10-11T18:06:12.747Z,16.60
2022-10-11T18:08:40.966Z,13.90
2022-10-11T18:11:14.026Z,18.40
2022-10-11T18:13:45.976Z,18.05
2022-10-11T18:16:14.991Z,12.85
2022-10-11T18:18:42.887Z,18.43
2022-10-11T18:21:51.628Z,15.68
2022-10-11T18:24:22.767Z,13.60
2022-10-11T18:26:49.776Z,11.80
2022-10-11T18:29:21.017Z,15.13
2022-10-11T18:34:57.317Z,15.02
2022-10-11T18:37:28.099Z,15.25
2022-10-11T18:39:55.201Z,13.52
2022-10-11T18:42:22.163Z,12.65
2022-10-11T18:44:49.243Z,18.35
2022-10-11T18:47:16.228Z,13.27
2022-10-11T18:49:43.219Z,20.33
2022-10-11T18:52:10.372Z,22.85
2022-10-11T18:54:37.372Z,17.92
2022-10-11T18:57:04.901Z,17.48
2022-10-11T18:59:33.117Z,17.13
2022-10-11T19:02:00.371Z,23.00
2022-10-11T19:04:28.647Z,28.45
2022-10-11T19:06:55.664Z,26.88
2022-10-11T19:09:26.199Z,30.92
2022-10-11T19:11:55.386Z,30.08
2022-10-11T19:14:28.940Z,26.23
2022-10-11T19:16:56.794Z,25.77
2022-10-11T19:19:27.552Z,21.80
2022-10-11T19:21:54.963Z,32.92
2022-10-11T19:24:25.924Z,29.67
2022-10-11T19:26:54.127Z,23.45
2022-10-11T19:29:25.608Z,25.73
2022-10-11T19:31:55.211Z,23.20
2022-10-11T19:34:23.668Z,31.17
2022-10-11T19:36:52.869Z,24.58
2022-10-11T19:39:21.326Z,24.85
2022-10-11T19:41:48.601Z,28.58
2022-10-11T19:44:16.753Z,29.48
2022-10-11T19:46:51.403Z,39.20
2022-10-11T19:49:22.817Z,34.25
2022-10-11T19:51:50.030Z,32.53
2022-10-11T19:54:17.301Z,33.45
2022-10-11T19:56:44.928Z,33.38
2022-10-11T19:59:13.296Z,35.65
2022-10-11T20:01:43.884Z,37.67
2022-10-11T20:04:27.760Z,37.97
2022-10-11T20:07:00.911Z,30.77
2022-10-11T20:09:30.269Z,32.78
2022-10-11T20:14:25.344Z,37.17
2022-10-11T20:16:52.922Z,30.08
2022-10-11T20:19:20.254Z,34.72
2022-10-11T20:21:48.063Z,31.45
2022-10-11T20:24:15.088Z,32.17
2022-10-11T20:26:42.069Z,27.25
2022-10-11T20:29:08.988Z,31.55
2022-10-11T20:31:40.924Z,27.58
2022-10-11T20:34:09.005Z,29.60
2022-10-11T20:36:36.713Z,24.10
2022-10-11T20:39:05.307Z,31.30
2022-10-11T20:41:39.891Z,32.25
2022-10-11T20:44:08.981Z,26.23
2022-10-11T20:46:38.470Z,25.92
2022-10-11T20:49:08.861Z,25.75
2022-10-11T20:51:38.652Z,29.30
2022-10-11T20:54:05.952Z,23.15
2022-10-11T20:56:33.972Z,22.27
2022-10-11T20:59:01.056Z,24.65
2022-10-11T21:01:40.303Z,23.70
2022-10-11T21:04:18.881Z,29.50
2022-10-11T21:06:47.349Z,29.33
2022-10-11T21:09:16.581Z,22.27
2022-10-11T21:11:44.360Z,31.10
2022-10-11T21:14:11.394Z,33.42
2022-10-11T21:16:38.366Z,31.60
2022-10-11T21:19:06.325Z,27.55
2022-10-11T21:21:34.154Z,31.55
2022-10-11T21:24:02.542Z,27.95
2022-10-11T21:26:30.609Z,27.65
2022-10-11T21:28:59.501Z,23.10
2022-10-11T21:31:32.687Z,29.92
2022-10-11T21:34:00.755Z,24.95
2022-10-11T21:36:27.854Z,24.13
2022-10-11T21:38:55.054Z,23.23
2022-10-11T21:41:25.644Z,21.98
2022-10-11T21:43:53.102Z,22.83
2022-10-11T21:46:23.746Z,22.45
2022-10-11T21:48:52.357Z,29.70
2022-10-11T21:51:23.498Z,23.70
2022-10-11T21:53:51.127Z,28.63
2022-10-11T21:56:18.406Z,24.13
2022-10-11T21:58:49.416Z,21.70
2022-10-11T22:03:59.924Z,21.13
2022-10-11T22:06:26.841Z,27.58
2022-10-11T22:08:53.932Z,28.83
2022-10-11T22:11:23.220Z,27.48
2022-10-11T22:13:50.148Z,32.75
2022-10-11T22:16:17.052Z,26.90
2022-10-11T22:18:44.173Z,33.50
2022-10-11T22:21:17.813Z,24.02
2022-10-11T22:23:46.949Z,27.98
2022-10-11T22:26:18.561Z,26.42
2022-10-11T22:28:48.836Z,23.90
2022-10-11T22:31:19.058Z,26.67
2022-10-11T22:33:46.432Z,22.92
2022-10-11T22:36:13.876Z,27.15
2022-10-11T22:38:42.973Z,24.88
2022-10-11T22:41:10.936Z,23.97
2022-10-11T22:43:38.414Z,24.83
2022-10-11T22:46:06.110Z,27.80
2022-10-11T22:48:33.341Z,28.33
2022-10-11T22:51:00.493Z,27.17
2022-10-11T22:53:27.716Z,22.95
2022-10-11T22:55:54.868Z,26.55
2022-10-11T22:58:21.924Z,26.23
2022-10-11T23:00:49.015Z,24.90
2022-10-11T23:03:17.600Z,24.55
2022-10-11T23:05:53.369Z,20.60
2022-10-11T23:08:20.373Z,23.23
2022-10-11T23:10:47.350Z,19.30
2022-10-11T23:13:14.446Z,21.02
2022-10-11T23:15:42.311Z,26.30
2022-10-11T23:18:09.406Z,20.73
2022-10-11T23:20:38.814Z,21.10
2022-10-11T23:23:06.821Z,25.65
2022-10-11T23:25:33.908Z,20.52
2022-10-11T23:28:01.582Z,27.13
2022-10-11T23:30:29.944Z,23.83
2022-10-11T23:32:57.075Z,20.58
2022-10-11T23:35:24.212Z,23.20
2022-10-11T23:37:53.395Z,23.17
2022-10-11T23:40:20.527Z,23.30
2022-10-11T23:42:47.567Z,24.83
2022-10-11T23:45:14.566Z,21.65
2022-10-11T23:47:41.544Z,25.52
2022-10-11T23:50:09.099Z,19.27
2022-10-11T23:52:36.197Z,20.92
2022-10-11T23:55:03.379Z,20.77
2022-10-11T23:57:30.428Z,20.85
2022-10-11T23:59:57.399Z,20.67
